createdAt,value
2023-02-13T00:01:17.526Z,10.02
2023-02-13T00:03:45.350Z,9.99
2023-02-13T00:06:23.245Z,9.89
2023-02-13T00:08:51.372Z,9.91
2023-02-13T00:11:20.606Z,9.89
2023-02-13T00:13:48.440Z,9.83
2023-02-13T00:16:16.305Z,9.85
2023-02-13T00:18:44.219Z,9.79
2023-02-13T00:21:13.780Z,9.82
2023-02-13T00:23:41.541Z,9.76
2023-02-13T00:26:14.068Z,9.75
2023-02-13T00:28:45.895Z,9.75
2023-02-13T00:31:19.083Z,9.74
2023-02-13T00:33:47.846Z,9.71
2023-02-13T00:36:22.074Z,9.66
2023-02-13T00:38:50.431Z,9.66
2023-02-13T00:41:18.283Z,9.65
2023-02-13T00:43:47.450Z,9.65
2023-02-13T00:46:17.243Z,9.67
2023-02-13T00:48:45.517Z,9.64
2023-02-13T00:51:13.408Z,9.64
2023-02-13T00:53:41.427Z,9.60
2023-02-13T00:56:09.767Z,9.58
2023-02-13T00:58:38.897Z,9.56
2023-02-13T01:01:06.833Z,9.56
2023-02-13T01:03:35.675Z,9.53
2023-02-13T01:06:03.746Z,9.49
2023-02-13T01:08:32.931Z,9.45
2023-02-13T01:11:01.064Z,9.41
2023-02-13T01:13:29.628Z,9.40
2023-02-13T01:15:57.558Z,9.38
2023-02-13T01:18:26.921Z,9.36
2023-02-13T01:21:08.320Z,9.32
2023-02-13T01:23:38.566Z,9.30
2023-02-13T01:26:10.803Z,9.28
2023-02-13T01:28:38.805Z,9.28
2023-02-13T01:31:06.697Z,9.23
2023-02-13T01:33:35.974Z,9.17
2023-02-13T01:36:14.129Z,9.19
2023-02-13T01:38:42.240Z,9.17
2023-02-13T01:41:10.351Z,9.17
2023-02-13T01:43:52.328Z,9.21
2023-02-13T01:46:29.572Z,9.22
2023-02-13T01:49:23.138Z,9.21
2023-02-13T01:51:55.908Z,9.15
2023-02-13T01:54:33.000Z,9.20
2023-02-13T01:57:08.951Z,9.13
2023-02-13T01:59:50.114Z,9.18
2023-02-13T02:02:19.028Z,9.11
2023-02-13T02:04:48.338Z,9.16
2023-02-13T02:07:26.480Z,9.19
2023-02-13T02:10:00.305Z,9.19
2023-02-13T02:12:32.254Z,9.23
2023-02-13T02:15:04.047Z,9.22
2023-02-13T02:17:33.793Z,9.11
2023-02-13T02:20:19.354Z,9.21
2023-02-13T02:23:03.453Z,9.18
2023-02-13T02:26:11.245Z,9.22
2023-02-13T02:29:23.297Z,9.25
2023-02-13T02:32:37.938Z,9.27
2023-02-13T02:35:27.779Z,9.29
2023-02-13T02:38:37.312Z,9.33
2023-02-13T02:41:42.217Z,9.34
2023-02-13T02:44:32.303Z,9.26
2023-02-13T02:47:52.937Z,9.25
2023-02-13T02:50:50.403Z,9.22
2023-02-13T02:54:03.470Z,9.20
2023-02-13T02:56:46.698Z,9.19
2023-02-13T02:59:55.224Z,9.19
2023-02-13T03:02:42.673Z,9.19
2023-02-13T03:05:49.142Z,9.14
2023-02-13T03:08:37.883Z,9.17
2023-02-13T03:11:25.423Z,9.14
2023-02-13T03:13:54.511Z,9.20
2023-02-13T03:16:44.199Z,9.20
2023-02-13T03:19:56.791Z,9.20
2023-02-13T03:22:52.623Z,9.18
2023-02-13T03:25:43.517Z,9.19
2023-02-13T03:28:49.077Z,9.16
2023-02-13T03:31:49.772Z,9.23
2023-02-13T03:34:23.608Z,9.19
2023-02-13T03:37:22.412Z,9.21
2023-02-13T03:40:08.168Z,9.24
2023-02-13T03:42:42.494Z,9.22
2023-02-13T03:45:51.463Z,9.17
2023-02-13T03:48:54.516Z,9.16
2023-02-13T03:51:40.731Z,9.16
2023-02-13T03:54:42.531Z,9.14
2023-02-13T03:57:33.850Z,9.11
2023-02-13T04:00:06.493Z,9.09
2023-02-13T04:02:54.585Z,9.14
2023-02-13T04:05:25.444Z,8.99
2023-02-13T04:07:53.884Z,9.09
2023-02-13T04:10:24.647Z,9.13
2023-02-13T04:13:14.440Z,9.11
2023-02-13T04:15:55.563Z,9.12
2023-02-13T04:18:31.044Z,9.06
2023-02-13T04:21:06.754Z,9.11
2023-02-13T04:23:36.839Z,9.09
2023-02-13T04:26:11.965Z,9.11
2023-02-13T04:28:39.806Z,9.06
2023-02-13T04:31:07.786Z,9.04
2023-02-13T04:33:35.681Z,9.04
2023-02-13T04:36:03.856Z,9.02
2023-02-13T04:38:31.754Z,8.97
2023-02-13T04:40:59.851Z,8.97
2023-02-13T04:43:27.945Z,9.00
2023-02-13T04:45:55.967Z,8.96
2023-02-13T04:48:23.879Z,8.99
2023-02-13T04:50:51.705Z,8.99
2023-02-13T04:53:19.597Z,8.97
2023-02-13T04:55:47.378Z,8.95
2023-02-13T04:58:15.164Z,8.94
2023-02-13T05:00:43.178Z,8.89
2023-02-13T05:03:13.614Z,8.92
2023-02-13T05:05:41.524Z,8.86
2023-02-13T05:08:09.751Z,8.81
2023-02-13T05:10:37.977Z,8.74
2023-02-13T05:13:05.913Z,8.68
2023-02-13T05:15:33.889Z,8.65
2023-02-13T05:18:01.873Z,8.66
2023-02-13T05:20:29.716Z,8.62
2023-02-13T05:23:16.615Z,8.61
2023-02-13T05:25:44.441Z,8.52
2023-02-13T05:28:31.297Z,8.51
2023-02-13T05:30:59.803Z,8.47
2023-02-13T05:33:27.817Z,8.46
2023-02-13T05:35:55.507Z,8.39
2023-02-13T05:38:23.440Z,8.35
2023-02-13T05:40:51.383Z,8.27
2023-02-13T05:43:20.405Z,8.28
2023-02-13T05:45:48.408Z,8.25
2023-02-13T05:48:16.180Z,8.20
2023-02-13T05:50:46.138Z,8.21
2023-02-13T05:53:14.035Z,8.22
2023-02-13T05:55:41.833Z,8.17
2023-02-13T05:58:09.608Z,8.10
2023-02-13T06:00:37.272Z,8.01
2023-02-13T06:03:05.036Z,8.09
2023-02-13T06:05:32.865Z,8.08
2023-02-13T06:08:00.819Z,8.02
2023-02-13T06:10:28.526Z,7.99
2023-02-13T06:12:56.286Z,7.97
2023-02-13T06:15:24.068Z,7.92
2023-02-13T06:17:51.938Z,7.85
2023-02-13T06:20:19.973Z,7.88
2023-02-13T06:22:52.222Z,7.94
2023-02-13T06:25:20.845Z,7.95
2023-02-13T06:27:50.281Z,7.95
2023-02-13T06:30:18.804Z,7.92
2023-02-13T06:32:48.116Z,7.94
2023-02-13T06:35:16.804Z,7.96
2023-02-13T06:37:45.466Z,7.99
2023-02-13T06:40:14.924Z,7.99
2023-02-13T06:42:44.052Z,7.97
2023-02-13T06:45:13.208Z,8.04
2023-02-13T06:47:43.653Z,8.05
2023-02-13T06:50:14.397Z,8.04
2023-02-13T06:52:52.629Z,7.99
2023-02-13T06:55:20.968Z,8.06
2023-02-13T06:57:50.443Z,8.04
2023-02-13T07:00:19.443Z,8.04
2023-02-13T07:02:47.879Z,8.04
2023-02-13T07:05:16.002Z,8.15
2023-02-13T07:07:44.097Z,8.16
2023-02-13T07:10:14.966Z,8.17
2023-02-13T07:12:45.673Z,8.17
2023-02-13T07:15:15.207Z,8.11
2023-02-13T07:17:43.044Z,8.14
2023-02-13T07:20:11.382Z,8.11
2023-02-13T07:22:39.162Z,8.09
2023-02-13T07:25:07.381Z,8.07
2023-02-13T07:27:35.131Z,8.01
2023-02-13T07:30:03.651Z,8.07
2023-02-13T07:32:31.907Z,8.04
2023-02-13T07:35:02.436Z,8.09
2023-02-13T07:37:33.486Z,8.04
2023-02-13T07:40:01.381Z,8.07
2023-02-13T07:42:35.501Z,8.04
2023-02-13T07:45:08.388Z,8.05
2023-02-13T07:47:36.135Z,7.99
2023-02-13T07:50:06.109Z,8.07
2023-02-13T07:52:36.167Z,8.02
2023-02-13T07:55:06.443Z,8.04
2023-02-13T07:57:34.567Z,7.99
2023-02-13T08:00:06.198Z,7.98
2023-02-13T08:02:39.713Z,8.06
2023-02-13T08:05:11.167Z,8.10
2023-02-13T08:07:39.043Z,8.10
2023-02-13T08:10:27.477Z,8.14
2023-02-13T08:12:55.538Z,8.14
2023-02-13T08:15:23.937Z,8.19
2023-02-13T08:17:53.848Z,8.16
2023-02-13T08:20:21.941Z,8.25
2023-02-13T08:22:52.397Z,8.20
2023-02-13T08:25:20.285Z,8.29
2023-02-13T08:27:48.337Z,8.30
2023-02-13T08:30:16.539Z,8.33
2023-02-13T08:32:53.865Z,8.37
2023-02-13T08:35:26.710Z,8.44
2023-02-13T08:37:55.862Z,8.50
2023-02-13T08:40:25.462Z,8.58
2023-02-13T08:43:01.470Z,8.64
2023-02-13T08:45:29.582Z,8.67
2023-02-13T08:47:59.023Z,8.72
2023-02-13T08:50:28.171Z,8.74
2023-02-13T08:53:16.176Z,8.75
2023-02-13T08:55:51.173Z,8.78
2023-02-13T08:58:19.026Z,8.85
2023-02-13T09:00:47.161Z,8.88
2023-02-13T09:03:15.842Z,8.95
2023-02-13T09:05:45.362Z,8.99
2023-02-13T09:08:13.817Z,9.05
2023-02-13T09:10:45.902Z,9.14
2023-02-13T09:13:13.623Z,9.20
2023-02-13T09:15:43.026Z,9.23
2023-02-13T09:18:11.008Z,9.30
2023-02-13T09:20:38.862Z,9.35
2023-02-13T09:23:06.503Z,9.42
2023-02-13T09:25:34.272Z,9.46
2023-02-13T09:28:02.213Z,9.48
2023-02-13T09:30:30.351Z,9.43
2023-02-13T09:32:58.170Z,9.52
2023-02-13T09:35:26.004Z,9.55
2023-02-13T09:37:53.691Z,9.59
2023-02-13T09:40:37.502Z,9.68
2023-02-13T09:43:29.505Z,9.73
2023-02-13T09:46:14.694Z,9.80
2023-02-13T09:48:46.267Z,9.77
2023-02-13T09:51:17.222Z,9.70
2023-02-13T09:54:01.772Z,9.91
2023-02-13T09:56:41.843Z,9.96
2023-02-13T09:59:44.517Z,10.06
2023-02-13T10:02:56.146Z,10.09
2023-02-13T10:05:58.624Z,10.11
2023-02-13T10:08:49.498Z,10.18
2023-02-13T10:11:54.022Z,10.20
2023-02-13T10:14:52.301Z,10.25
2023-02-13T10:17:45.199Z,10.27
2023-02-13T10:20:24.906Z,10.35
2023-02-13T10:23:32.678Z,10.36
2023-02-13T10:26:20.214Z,10.48
2023-02-13T10:29:21.784Z,10.57
2023-02-13T10:31:52.505Z,10.59
2023-02-13T10:34:25.297Z,10.62
2023-02-13T10:36:53.357Z,10.64
2023-02-13T10:39:30.336Z,10.78
2023-02-13T10:42:44.921Z,10.79
2023-02-13T10:45:46.900Z,10.81
2023-02-13T10:48:34.425Z,10.89
2023-02-13T10:51:35.932Z,10.98
2023-02-13T10:54:32.495Z,10.98
2023-02-13T10:57:14.451Z,11.02
2023-02-13T11:00:03.459Z,11.10
2023-02-13T11:02:34.684Z,11.08
2023-02-13T11:05:18.145Z,11.17
2023-02-13T11:07:47.586Z,11.20
2023-02-13T11:10:20.657Z,11.24
2023-02-13T11:12:50.174Z,11.24
2023-02-13T11:15:28.822Z,11.36
2023-02-13T11:18:03.462Z,11.36
2023-02-13T11:20:44.467Z,11.38
2023-02-13T11:23:30.697Z,11.49
2023-02-13T11:26:10.933Z,11.54
2023-02-13T11:28:56.830Z,11.58
2023-02-13T11:31:37.813Z,11.69
2023-02-13T11:34:27.278Z,11.72
2023-02-13T11:37:22.402Z,11.77
2023-02-13T11:39:54.934Z,11.77
2023-02-13T11:42:37.234Z,11.81
2023-02-13T11:45:23.812Z,11.90
2023-02-13T11:47:54.206Z,11.92
2023-02-13T11:50:35.728Z,12.02
2023-02-13T11:53:25.990Z,11.83
2023-02-13T11:56:15.296Z,12.01
2023-02-13T11:58:43.603Z,12.05
2023-02-13T12:01:20.280Z,12.18
2023-02-13T12:04:16.179Z,12.25
2023-02-13T12:07:00.959Z,12.26
2023-02-13T12:09:30.633Z,12.32
2023-02-13T12:12:04.179Z,12.38
2023-02-13T12:14:45.090Z,12.47
2023-02-13T12:17:31.797Z,12.52
2023-02-13T12:20:01.382Z,12.51
2023-02-13T12:22:38.635Z,12.55
2023-02-13T12:25:33.890Z,12.64
2023-02-13T12:28:33.202Z,12.64
2023-02-13T12:31:20.204Z,12.68
2023-02-13T12:34:57.393Z,12.69
2023-02-13T12:37:55.367Z,12.73
2023-02-13T12:40:47.917Z,12.79
2023-02-13T12:43:46.533Z,12.80
2023-02-13T12:46:41.303Z,12.84
2023-02-13T12:49:46.581Z,12.78
2023-02-13T12:52:33.995Z,12.89
2023-02-13T12:55:13.523Z,12.92
2023-02-13T12:58:17.366Z,12.98
2023-02-13T13:01:30.240Z,12.96
2023-02-13T13:04:40.379Z,13.01
2023-02-13T13:07:25.966Z,13.08
2023-02-13T13:10:25.361Z,13.12
2023-02-13T13:13:27.836Z,13.13
2023-02-13T13:16:32.724Z,13.17
2023-02-13T13:19:12.500Z,13.22
2023-02-13T13:21:46.380Z,13.26
2023-02-13T13:24:49.280Z,13.31
2023-02-13T13:27:37.844Z,13.31
2023-02-13T13:30:16.083Z,13.37
2023-02-13T13:32:45.961Z,13.40
2023-02-13T13:35:19.972Z,13.47
2023-02-13T13:38:18.343Z,13.52
2023-02-13T13:41:00.317Z,13.55
2023-02-13T13:43:40.669Z,13.57
2023-02-13T13:46:45.884Z,13.60
2023-02-13T13:49:53.582Z,13.62
2023-02-13T13:52:32.948Z,13.67
2023-02-13T13:55:03.089Z,13.70
2023-02-13T13:57:40.267Z,13.75
2023-02-13T14:00:14.032Z,13.77
2023-02-13T14:02:45.222Z,13.77
2023-02-13T14:05:27.446Z,13.75
2023-02-13T14:07:58.764Z,13.82
2023-02-13T14:10:26.736Z,13.85
2023-02-13T14:12:58.395Z,13.89
2023-02-13T14:15:38.332Z,13.91
2023-02-13T14:18:14.583Z,13.92
2023-02-13T14:20:50.432Z,13.93
2023-02-13T14:23:50.556Z,13.99
2023-02-13T14:26:18.359Z,13.96
2023-02-13T14:28:49.178Z,13.99
2023-02-13T14:31:39.237Z,13.96
2023-02-13T14:34:16.966Z,14.05
2023-02-13T14:37:07.172Z,14.06
2023-02-13T14:39:35.934Z,14.07
2023-02-13T14:42:23.288Z,14.13
2023-02-13T14:44:56.413Z,14.14
2023-02-13T14:47:42.628Z,14.20
2023-02-13T14:50:30.594Z,14.23
2023-02-13T14:53:02.851Z,14.25
2023-02-13T14:55:48.212Z,14.20
2023-02-13T14:58:43.210Z,14.27
2023-02-13T15:01:35.739Z,14.31
2023-02-13T15:04:28.165Z,14.25
2023-02-13T15:07:00.193Z,14.28
2023-02-13T15:09:41.326Z,14.34
2023-02-13T15:12:36.259Z,14.33
2023-02-13T15:15:32.471Z,14.35
2023-02-13T15:18:13.444Z,14.35
2023-02-13T15:20:43.125Z,14.27
2023-02-13T15:23:26.679Z,14.37
2023-02-13T15:26:04.447Z,14.32
2023-02-13T15:28:34.274Z,14.35
2023-02-13T15:31:21.699Z,14.35
2023-02-13T15:33:51.435Z,14.37
2023-02-13T15:36:25.365Z,14.37
2023-02-13T15:39:01.003Z,14.36
2023-02-13T15:41:45.244Z,14.31
2023-02-13T15:44:36.981Z,14.36
2023-02-13T15:47:17.382Z,14.34
2023-02-13T15:49:48.763Z,14.35
2023-02-13T15:52:38.380Z,14.16
2023-02-13T15:55:06.517Z,14.25
2023-02-13T15:57:35.441Z,14.25
2023-02-13T16:00:04.254Z,14.32
2023-02-13T16:02:47.838Z,14.27
2023-02-13T16:05:26.488Z,14.24
2023-02-13T16:08:31.016Z,14.25
2023-02-13T16:11:27.034Z,14.28
2023-02-13T16:14:21.229Z,14.24
2023-02-13T16:17:03.097Z,14.16
2023-02-13T16:19:41.895Z,14.15
2023-02-13T16:22:24.629Z,14.12
2023-02-13T16:24:58.185Z,14.13
2023-02-13T16:27:28.287Z,14.05
2023-02-13T16:30:07.790Z,14.11
2023-02-13T16:32:41.393Z,14.04
2023-02-13T16:35:28.969Z,14.02
2023-02-13T16:38:01.725Z,14.04
2023-02-13T16:40:43.058Z,13.95
2023-02-13T16:43:35.581Z,13.98
2023-02-13T16:46:14.985Z,13.97
2023-02-13T16:48:56.481Z,13.92
2023-02-13T16:51:30.379Z,13.89
2023-02-13T16:54:28.492Z,13.87
2023-02-13T16:57:14.739Z,13.82
2023-02-13T16:59:48.647Z,13.79
2023-02-13T17:02:23.860Z,13.74
2023-02-13T17:05:08.386Z,13.70
2023-02-13T17:07:48.501Z,13.66
2023-02-13T17:10:31.064Z,13.62
2023-02-13T17:13:02.995Z,13.54
2023-02-13T17:15:32.693Z,13.52
2023-02-13T17:18:00.751Z,13.49
2023-02-13T17:20:32.400Z,13.47
2023-02-13T17:23:04.356Z,13.37
2023-02-13T17:25:36.052Z,13.37
2023-02-13T17:28:18.847Z,13.26
2023-02-13T17:30:48.498Z,13.13
2023-02-13T17:33:35.443Z,13.08
2023-02-13T17:36:03.359Z,12.99
2023-02-13T17:38:31.271Z,12.96
2023-02-13T17:41:00.595Z,12.91
2023-02-13T17:43:29.957Z,12.86
2023-02-13T17:46:01.221Z,12.84
2023-02-13T17:48:29.402Z,12.75
2023-02-13T17:50:57.674Z,12.82
2023-02-13T17:53:29.975Z,12.79
2023-02-13T17:55:58.298Z,12.69
2023-02-13T17:58:29.398Z,12.56
2023-02-13T18:00:57.906Z,12.45
2023-02-13T18:03:25.927Z,12.35
2023-02-13T18:05:53.628Z,12.34
2023-02-13T18:08:21.388Z,12.31
2023-02-13T18:10:49.478Z,12.18
2023-02-13T18:13:17.534Z,12.15
2023-02-13T18:15:45.494Z,12.01
2023-02-13T18:18:16.235Z,11.95
2023-02-13T18:20:45.053Z,11.88
2023-02-13T18:23:13.901Z,11.85
2023-02-13T18:25:41.787Z,11.82
2023-02-13T18:28:09.564Z,11.75
2023-02-13T18:30:42.988Z,11.69
2023-02-13T18:33:11.062Z,11.56
2023-02-13T18:35:40.978Z,11.58
2023-02-13T18:38:08.769Z,11.57
2023-02-13T18:40:36.761Z,11.55
2023-02-13T18:43:04.676Z,11.60
2023-02-13T18:45:32.560Z,11.62
2023-02-13T18:48:02.356Z,11.63
2023-02-13T18:50:30.098Z,11.65
2023-02-13T18:52:58.003Z,11.61
2023-02-13T18:55:28.409Z,11.56
2023-02-13T18:57:56.413Z,11.61
2023-02-13T19:00:26.866Z,11.50
2023-02-13T19:02:55.530Z,11.47
2023-02-13T19:05:23.537Z,11.43
2023-02-13T19:07:54.157Z,11.26
2023-02-13T19:10:25.190Z,11.20
2023-02-13T19:12:53.343Z,10.96
2023-02-13T19:15:21.338Z,10.83
2023-02-13T19:17:49.180Z,10.74
2023-02-13T19:20:17.178Z,10.50
2023-02-13T19:22:45.023Z,10.48
2023-02-13T19:25:12.937Z,10.37
2023-02-13T19:27:40.712Z,10.32
2023-02-13T19:30:10.581Z,10.18
2023-02-13T19:32:38.486Z,10.18
2023-02-13T19:35:08.901Z,10.13
2023-02-13T19:37:43.750Z,10.03
2023-02-13T19:40:14.015Z,10.02
2023-02-13T19:42:42.329Z,9.90
2023-02-13T19:45:10.657Z,9.91
2023-02-13T19:47:38.399Z,9.89
2023-02-13T19:50:07.460Z,9.89
2023-02-13T19:52:35.400Z,9.87
2023-02-13T19:55:03.434Z,9.89
2023-02-13T19:57:33.753Z,9.92
2023-02-13T20:00:06.032Z,10.01
2023-02-13T20:02:39.742Z,10.14
2023-02-13T20:05:08.828Z,10.22
2023-02-13T20:07:36.564Z,10.27
2023-02-13T20:10:06.437Z,10.36
2023-02-13T20:12:34.154Z,10.40
2023-02-13T20:15:02.598Z,10.43
2023-02-13T20:17:30.435Z,10.44
2023-02-13T20:19:58.953Z,10.40
2023-02-13T20:22:26.712Z,10.49
2023-02-13T20:24:54.420Z,10.47
2023-02-13T20:27:22.276Z,10.48
2023-02-13T20:29:51.389Z,10.50
2023-02-13T20:32:19.435Z,10.53
2023-02-13T20:34:59.462Z,10.50
2023-02-13T20:37:27.906Z,10.53
2023-02-13T20:39:55.795Z,10.50
2023-02-13T20:42:24.275Z,10.50
2023-02-13T20:44:52.235Z,10.43
2023-02-13T20:47:20.243Z,10.49
2023-02-13T20:49:48.382Z,10.48
2023-02-13T20:52:16.281Z,10.45
2023-02-13T20:54:44.108Z,10.46
2023-02-13T20:57:15.703Z,10.43
2023-02-13T20:59:44.930Z,10.21
2023-02-13T21:02:13.158Z,10.28
2023-02-13T21:04:41.033Z,10.28
2023-02-13T21:07:09.367Z,10.27
2023-02-13T21:09:37.820Z,10.26
2023-02-13T21:12:05.947Z,10.23
2023-02-13T21:14:33.921Z,10.21
2023-02-13T21:17:01.961Z,10.19
2023-02-13T21:19:31.334Z,10.20
2023-02-13T21:22:11.926Z,10.12
2023-02-13T21:24:42.318Z,10.17
2023-02-13T21:27:11.100Z,10.09
2023-02-13T21:29:39.052Z,10.15
2023-02-13T21:32:07.023Z,10.15
2023-02-13T21:34:35.213Z,10.15
2023-02-13T21:37:03.340Z,10.16
2023-02-13T21:39:31.225Z,10.14
2023-02-13T21:41:59.063Z,10.15
2023-02-13T21:44:27.081Z,10.10
2023-02-13T21:46:54.951Z,10.12
2023-02-13T21:49:25.005Z,10.11
2023-02-13T21:51:52.989Z,10.04
2023-02-13T21:54:20.791Z,9.95
2023-02-13T21:56:48.719Z,9.93
2023-02-13T21:59:17.701Z,9.86
2023-02-13T22:01:50.212Z,9.79
2023-02-13T22:04:18.706Z,9.78
2023-02-13T22:06:52.640Z,9.73
2023-02-13T22:09:21.873Z,9.73
2023-02-13T22:11:51.796Z,9.72
2023-02-13T22:14:19.882Z,9.65
2023-02-13T22:16:51.646Z,9.68
2023-02-13T22:19:21.202Z,9.62
2023-02-13T22:21:49.475Z,9.60
2023-02-13T22:24:17.347Z,9.60
2023-02-13T22:26:45.406Z,9.57
2023-02-13T22:29:17.722Z,9.52
2023-02-13T22:31:46.630Z,9.52
2023-02-13T22:34:15.570Z,9.50
2023-02-13T22:36:43.346Z,9.47
2023-02-13T22:39:12.078Z,9.43
2023-02-13T22:41:40.988Z,9.41
2023-02-13T22:44:08.844Z,9.42
2023-02-13T22:46:36.642Z,9.41
2023-02-13T22:49:04.605Z,9.35
2023-02-13T22:51:35.370Z,9.36
2023-02-13T22:54:04.453Z,9.28
2023-02-13T22:56:32.882Z,9.35
2023-02-13T22:59:01.074Z,9.33
2023-02-13T23:01:29.651Z,9.32
2023-02-13T23:04:00.967Z,9.32
2023-02-13T23:06:29.067Z,9.29
2023-02-13T23:08:57.506Z,9.27
2023-02-13T23:11:46.344Z,9.26
2023-02-13T23:14:15.076Z,9.13
2023-02-13T23:17:01.634Z,9.12
2023-02-13T23:19:30.532Z,9.00
2023-02-13T23:22:00.368Z,8.99
2023-02-13T23:24:29.941Z,8.91
2023-02-13T23:26:59.591Z,8.90
2023-02-13T23:29:27.583Z,8.83
2023-02-13T23:31:56.065Z,8.81
2023-02-13T23:34:24.290Z,8.78
2023-02-13T23:36:51.998Z,8.73
2023-02-13T23:39:20.374Z,8.68
2023-02-13T23:41:48.140Z,8.61
2023-02-13T23:44:15.807Z,8.57
2023-02-13T23:46:43.583Z,8.52
2023-02-13T23:49:11.446Z,8.50
2023-02-13T23:51:39.210Z,8.43
2023-02-13T23:54:07.190Z,8.38
2023-02-13T23:56:35.127Z,8.31
2023-02-13T23:59:02.969Z,8.24
